sensor_id;sensor_type;location;lat;lon;timestamp;P1;durP1;ratioP1;P2;durP2;ratioP2
14992;SDS011;7592;51.088;13.732;2023-02-11T00:00:58;32.43;;;21.70;;
14992;SDS011;7592;51.088;13.732;2023-02-11T00:05:59;33.63;;;20.30;;
14992;SDS011;7592;51.088;13.732;2023-02-11T00:10:53;37.10;;;21.77;;
14992;SDS011;7592;51.088;13.732;2023-02-11T00:15:47;34.20;;;22.40;;
14992;SDS011;7592;51.088;13.732;2023-02-11T00:20:39;34.73;;;21.90;;
14992;SDS011;7592;51.088;13.732;2023-02-11T00:25:32;33.60;;;21.03;;
14992;SDS011;7592;51.088;13.732;2023-02-11T00:30:24;31.57;;;21.37;;
14992;SDS011;7592;51.088;13.732;2023-02-11T00:35:17;32.60;;;20.97;;
14992;SDS011;7592;51.088;13.732;2023-02-11T00:40:09;31.57;;;20.73;;
14992;SDS011;7592;51.088;13.732;2023-02-11T00:45:02;35.43;;;20.87;;
14992;SDS011;7592;51.088;13.732;2023-02-11T00:49:54;33.30;;;21.37;;
14992;SDS011;7592;51.088;13.732;2023-02-11T00:54:46;29.87;;;20.60;;
14992;SDS011;7592;51.088;13.732;2023-02-11T00:59:38;34.60;;;21.07;;
14992;SDS011;7592;51.088;13.732;2023-02-11T01:04:30;36.67;;;21.73;;
14992;SDS011;7592;51.088;13.732;2023-02-11T01:09:22;32.13;;;21.13;;
14992;SDS011;7592;51.088;13.732;2023-02-11T01:14:14;29.60;;;20.23;;
14992;SDS011;7592;51.088;13.732;2023-02-11T01:19:07;34.37;;;20.33;;
14992;SDS011;7592;51.088;13.732;2023-02-11T01:23:59;30.73;;;20.93;;
14992;SDS011;7592;51.088;13.732;2023-02-11T01:28:51;30.27;;;20.73;;
14992;SDS011;7592;51.088;13.732;2023-02-11T01:33:43;30.77;;;20.00;;
14992;SDS011;7592;51.088;13.732;2023-02-11T01:38:35;31.97;;;19.60;;
14992;SDS011;7592;51.088;13.732;2023-02-11T01:43:30;29.37;;;20.60;;
14992;SDS011;7592;51.088;13.732;2023-02-11T01:48:25;28.80;;;20.50;;
14992;SDS011;7592;51.088;13.732;2023-02-11T01:53:20;31.90;;;19.87;;
14992;SDS011;7592;51.088;13.732;2023-02-11T01:58:31;26.57;;;19.00;;
14992;SDS011;7592;51.088;13.732;2023-02-11T02:03:26;26.13;;;19.77;;
14992;SDS011;7592;51.088;13.732;2023-02-11T02:14:45;29.83;;;20.17;;
14992;SDS011;7592;51.088;13.732;2023-02-11T02:39:42;28.77;;;19.93;;
14992;SDS011;7592;51.088;13.732;2023-02-11T02:44:37;27.60;;;19.30;;
14992;SDS011;7592;51.088;13.732;2023-02-11T02:49:29;28.07;;;20.07;;
14992;SDS011;7592;51.088;13.732;2023-02-11T02:54:28;29.47;;;21.00;;
14992;SDS011;7592;51.088;13.732;2023-02-11T03:10:09;28.60;;;19.80;;
14992;SDS011;7592;51.088;13.732;2023-02-11T03:15:15;27.23;;;19.43;;
14992;SDS011;7592;51.088;13.732;2023-02-11T03:20:09;26.47;;;19.27;;
14992;SDS011;7592;51.088;13.732;2023-02-11T03:25:03;26.43;;;19.73;;
14992;SDS011;7592;51.088;13.732;2023-02-11T03:30:15;29.00;;;19.60;;
14992;SDS011;7592;51.088;13.732;2023-02-11T03:40:16;28.50;;;20.07;;
14992;SDS011;7592;51.088;13.732;2023-02-11T03:45:13;28.27;;;20.43;;
14992;SDS011;7592;51.088;13.732;2023-02-11T03:50:09;27.40;;;19.47;;
14992;SDS011;7592;51.088;13.732;2023-02-11T03:55:05;26.10;;;19.73;;
14992;SDS011;7592;51.088;13.732;2023-02-11T04:00:01;30.40;;;20.10;;
14992;SDS011;7592;51.088;13.732;2023-02-11T04:05:05;28.10;;;21.30;;
14992;SDS011;7592;51.088;13.732;2023-02-11T04:09:59;29.53;;;21.27;;
14992;SDS011;7592;51.088;13.732;2023-02-11T04:14:51;28.83;;;20.50;;
14992;SDS011;7592;51.088;13.732;2023-02-11T04:19:44;30.20;;;21.43;;
14992;SDS011;7592;51.088;13.732;2023-02-11T04:24:36;27.20;;;19.33;;
14992;SDS011;7592;51.088;13.732;2023-02-11T04:29:28;28.80;;;21.67;;
14992;SDS011;7592;51.088;13.732;2023-02-11T04:34:20;28.70;;;20.47;;
14992;SDS011;7592;51.088;13.732;2023-02-11T04:39:12;27.77;;;20.93;;
14992;SDS011;7592;51.088;13.732;2023-02-11T04:44:04;30.20;;;20.60;;
14992;SDS011;7592;51.088;13.732;2023-02-11T04:48:56;27.67;;;19.03;;
14992;SDS011;7592;51.088;13.732;2023-02-11T04:53:48;29.03;;;20.33;;
14992;SDS011;7592;51.088;13.732;2023-02-11T04:58:40;29.83;;;20.23;;
14992;SDS011;7592;51.088;13.732;2023-02-11T05:03:32;27.77;;;21.07;;
14992;SDS011;7592;51.088;13.732;2023-02-11T05:08:25;27.40;;;19.93;;
14992;SDS011;7592;51.088;13.732;2023-02-11T05:13:17;31.27;;;21.57;;
14992;SDS011;7592;51.088;13.732;2023-02-11T05:18:09;28.00;;;20.77;;
14992;SDS011;7592;51.088;13.732;2023-02-11T05:23:01;30.83;;;21.87;;
14992;SDS011;7592;51.088;13.732;2023-02-11T05:27:53;33.47;;;21.03;;
14992;SDS011;7592;51.088;13.732;2023-02-11T05:32:45;29.47;;;20.17;;
14992;SDS011;7592;51.088;13.732;2023-02-11T05:37:37;29.70;;;21.20;;
14992;SDS011;7592;51.088;13.732;2023-02-11T05:42:29;31.43;;;21.97;;
14992;SDS011;7592;51.088;13.732;2023-02-11T05:47:21;28.37;;;20.73;;
14992;SDS011;7592;51.088;13.732;2023-02-11T05:52:13;35.37;;;21.13;;
14992;SDS011;7592;51.088;13.732;2023-02-11T05:57:05;35.40;;;22.63;;
14992;SDS011;7592;51.088;13.732;2023-02-11T06:01:57;34.00;;;23.43;;
14992;SDS011;7592;51.088;13.732;2023-02-11T06:06:49;36.13;;;23.07;;
14992;SDS011;7592;51.088;13.732;2023-02-11T06:11:42;33.83;;;22.70;;
14992;SDS011;7592;51.088;13.732;2023-02-11T06:16:33;31.63;;;22.60;;
14992;SDS011;7592;51.088;13.732;2023-02-11T06:21:26;32.33;;;21.73;;
14992;SDS011;7592;51.088;13.732;2023-02-11T06:26:33;31.40;;;22.67;;
14992;SDS011;7592;51.088;13.732;2023-02-11T06:31:25;39.60;;;23.20;;
14992;SDS011;7592;51.088;13.732;2023-02-11T06:36:18;35.80;;;23.37;;
14992;SDS011;7592;51.088;13.732;2023-02-11T06:41:12;34.60;;;23.63;;
14992;SDS011;7592;51.088;13.732;2023-02-11T06:46:05;29.10;;;21.80;;
14992;SDS011;7592;51.088;13.732;2023-02-11T06:51:02;36.93;;;23.67;;
14992;SDS011;7592;51.088;13.732;2023-02-11T06:56:05;32.23;;;22.80;;
14992;SDS011;7592;51.088;13.732;2023-02-11T07:01:03;32.23;;;23.30;;
14992;SDS011;7592;51.088;13.732;2023-02-11T07:05:59;31.60;;;22.60;;
14992;SDS011;7592;51.088;13.732;2023-02-11T07:10:51;33.00;;;21.50;;
14992;SDS011;7592;51.088;13.732;2023-02-11T07:15:45;35.97;;;23.53;;
14992;SDS011;7592;51.088;13.732;2023-02-11T07:20:37;36.57;;;23.97;;
14992;SDS011;7592;51.088;13.732;2023-02-11T07:25:29;33.90;;;23.23;;
14992;SDS011;7592;51.088;13.732;2023-02-11T07:30:21;32.47;;;22.30;;
14992;SDS011;7592;51.088;13.732;2023-02-11T07:35:13;34.97;;;23.70;;
14992;SDS011;7592;51.088;13.732;2023-02-11T07:40:06;36.40;;;23.23;;
14992;SDS011;7592;51.088;13.732;2023-02-11T07:44:58;35.23;;;22.93;;
14992;SDS011;7592;51.088;13.732;2023-02-11T07:49:50;33.27;;;23.30;;
14992;SDS011;7592;51.088;13.732;2023-02-11T07:54:47;31.80;;;22.33;;
14992;SDS011;7592;51.088;13.732;2023-02-11T07:59:39;32.17;;;22.33;;
14992;SDS011;7592;51.088;13.732;2023-02-11T08:04:31;30.67;;;22.47;;
14992;SDS011;7592;51.088;13.732;2023-02-11T08:09:23;32.37;;;23.10;;
14992;SDS011;7592;51.088;13.732;2023-02-11T08:14:15;32.27;;;22.43;;
14992;SDS011;7592;51.088;13.732;2023-02-11T08:19:10;29.10;;;21.97;;
14992;SDS011;7592;51.088;13.732;2023-02-11T08:24:04;30.70;;;21.77;;
14992;SDS011;7592;51.088;13.732;2023-02-11T08:28:57;33.10;;;22.23;;
14992;SDS011;7592;51.088;13.732;2023-02-11T08:33:49;34.03;;;21.33;;
14992;SDS011;7592;51.088;13.732;2023-02-11T08:38:42;29.57;;;21.27;;
14992;SDS011;7592;51.088;13.732;2023-02-11T08:43:35;30.07;;;20.90;;
14992;SDS011;7592;51.088;13.732;2023-02-11T08:48:32;31.23;;;21.07;;
14992;SDS011;7592;51.088;13.732;2023-02-11T08:53:24;29.27;;;20.50;;
14992;SDS011;7592;51.088;13.732;2023-02-11T08:58:16;30.57;;;22.27;;
14992;SDS011;7592;51.088;13.732;2023-02-11T09:03:10;29.40;;;21.73;;
14992;SDS011;7592;51.088;13.732;2023-02-11T09:08:03;33.57;;;22.13;;
14992;SDS011;7592;51.088;13.732;2023-02-11T09:12:56;27.57;;;20.23;;
14992;SDS011;7592;51.088;13.732;2023-02-11T09:17:48;29.27;;;20.43;;
14992;SDS011;7592;51.088;13.732;2023-02-11T09:22:40;25.47;;;20.73;;
14992;SDS011;7592;51.088;13.732;2023-02-11T09:27:32;28.03;;;20.67;;
14992;SDS011;7592;51.088;13.732;2023-02-11T09:32:24;29.87;;;21.03;;
14992;SDS011;7592;51.088;13.732;2023-02-11T09:37:16;32.17;;;22.57;;
14992;SDS011;7592;51.088;13.732;2023-02-11T09:47:18;29.37;;;21.90;;
14992;SDS011;7592;51.088;13.732;2023-02-11T09:57:33;32.43;;;20.93;;
14992;SDS011;7592;51.088;13.732;2023-02-11T10:08:15;30.77;;;22.53;;
14992;SDS011;7592;51.088;13.732;2023-02-11T10:13:23;30.27;;;21.93;;
14992;SDS011;7592;51.088;13.732;2023-02-11T10:18:44;29.57;;;20.90;;
14992;SDS011;7592;51.088;13.732;2023-02-11T10:23:51;26.67;;;20.13;;
14992;SDS011;7592;51.088;13.732;2023-02-11T10:28:48;29.10;;;21.20;;
14992;SDS011;7592;51.088;13.732;2023-02-11T10:33:51;29.50;;;22.30;;
14992;SDS011;7592;51.088;13.732;2023-02-11T10:38:53;32.53;;;21.03;;
14992;SDS011;7592;51.088;13.732;2023-02-11T10:43:46;27.03;;;20.40;;
14992;SDS011;7592;51.088;13.732;2023-02-11T10:48:45;31.53;;;22.03;;
14992;SDS011;7592;51.088;13.732;2023-02-11T10:53:43;27.73;;;20.87;;
14992;SDS011;7592;51.088;13.732;2023-02-11T10:58:40;23.50;;;18.30;;
14992;SDS011;7592;51.088;13.732;2023-02-11T11:03:39;25.70;;;20.23;;
14992;SDS011;7592;51.088;13.732;2023-02-11T11:08:48;27.10;;;19.70;;
14992;SDS011;7592;51.088;13.732;2023-02-11T11:14:02;26.23;;;20.07;;
14992;SDS011;7592;51.088;13.732;2023-02-11T11:23:58;25.40;;;20.33;;
14992;SDS011;7592;51.088;13.732;2023-02-11T11:28:53;29.30;;;21.73;;
14992;SDS011;7592;51.088;13.732;2023-02-11T11:33:52;31.67;;;24.90;;
14992;SDS011;7592;51.088;13.732;2023-02-11T11:39:00;25.93;;;20.70;;
14992;SDS011;7592;51.088;13.732;2023-02-11T11:54:20;26.93;;;20.13;;
14992;SDS011;7592;51.088;13.732;2023-02-11T11:59:14;29.73;;;21.83;;
14992;SDS011;7592;51.088;13.732;2023-02-11T12:09:42;26.13;;;19.40;;
14992;SDS011;7592;51.088;13.732;2023-02-11T12:14:51;25.37;;;19.03;;
14992;SDS011;7592;51.088;13.732;2023-02-11T12:30:34;25.87;;;19.23;;
14992;SDS011;7592;51.088;13.732;2023-02-11T12:35:31;23.47;;;18.60;;
14992;SDS011;7592;51.088;13.732;2023-02-11T12:46:07;26.60;;;18.97;;
14992;SDS011;7592;51.088;13.732;2023-02-11T12:56:26;24.13;;;19.07;;
14992;SDS011;7592;51.088;13.732;2023-02-11T13:01:38;23.87;;;18.03;;
14992;SDS011;7592;51.088;13.732;2023-02-11T13:06:39;24.43;;;18.87;;
14992;SDS011;7592;51.088;13.732;2023-02-11T13:11:40;28.33;;;21.47;;
14992;SDS011;7592;51.088;13.732;2023-02-11T13:16:46;23.97;;;18.50;;
14992;SDS011;7592;51.088;13.732;2023-02-11T13:32:24;26.67;;;19.40;;
14992;SDS011;7592;51.088;13.732;2023-02-11T13:37:24;23.13;;;18.13;;
14992;SDS011;7592;51.088;13.732;2023-02-11T13:42:21;24.00;;;18.93;;
14992;SDS011;7592;51.088;13.732;2023-02-11T13:47:30;23.30;;;16.97;;
14992;SDS011;7592;51.088;13.732;2023-02-11T13:52:31;25.03;;;18.87;;
14992;SDS011;7592;51.088;13.732;2023-02-11T13:57:32;26.53;;;22.97;;
14992;SDS011;7592;51.088;13.732;2023-02-11T14:07:36;29.63;;;19.70;;
14992;SDS011;7592;51.088;13.732;2023-02-11T14:13:03;24.30;;;18.67;;
14992;SDS011;7592;51.088;13.732;2023-02-11T14:18:56;22.93;;;17.40;;
14992;SDS011;7592;51.088;13.732;2023-02-11T14:23:30;20.70;;;15.53;;
14992;SDS011;7592;51.088;13.732;2023-02-11T14:28:23;22.47;;;17.90;;
14992;SDS011;7592;51.088;13.732;2023-02-11T14:43:39;22.07;;;18.20;;
14992;SDS011;7592;51.088;13.732;2023-02-11T14:48:36;21.93;;;17.73;;
14992;SDS011;7592;51.088;13.732;2023-02-11T14:53:30;22.77;;;17.57;;
14992;SDS011;7592;51.088;13.732;2023-02-11T14:58:25;22.93;;;18.80;;
14992;SDS011;7592;51.088;13.732;2023-02-11T15:08:22;23.30;;;17.07;;
14992;SDS011;7592;51.088;13.732;2023-02-11T15:13:15;25.93;;;18.67;;
14992;SDS011;7592;51.088;13.732;2023-02-11T15:18:18;24.53;;;17.53;;
14992;SDS011;7592;51.088;13.732;2023-02-11T15:23:19;25.77;;;18.20;;
14992;SDS011;7592;51.088;13.732;2023-02-11T15:28:21;21.57;;;17.87;;
14992;SDS011;7592;51.088;13.732;2023-02-11T15:33:20;22.43;;;16.77;;
14992;SDS011;7592;51.088;13.732;2023-02-11T15:38:13;23.73;;;18.27;;
14992;SDS011;7592;51.088;13.732;2023-02-11T15:43:06;31.70;;;23.00;;
14992;SDS011;7592;51.088;13.732;2023-02-11T15:48:16;24.53;;;18.53;;
14992;SDS011;7592;51.088;13.732;2023-02-11T15:58:17;22.20;;;17.23;;
14992;SDS011;7592;51.088;13.732;2023-02-11T16:03:18;21.63;;;16.63;;
14992;SDS011;7592;51.088;13.732;2023-02-11T16:08:19;21.73;;;16.53;;
14992;SDS011;7592;51.088;13.732;2023-02-11T16:13:19;24.50;;;17.70;;
14992;SDS011;7592;51.088;13.732;2023-02-11T16:23:32;24.00;;;17.53;;
14992;SDS011;7592;51.088;13.732;2023-02-11T16:28:27;20.83;;;16.53;;
14992;SDS011;7592;51.088;13.732;2023-02-11T16:33:19;20.27;;;16.17;;
14992;SDS011;7592;51.088;13.732;2023-02-11T16:38:12;21.80;;;18.30;;
14992;SDS011;7592;51.088;13.732;2023-02-11T16:43:04;23.67;;;17.83;;
14992;SDS011;7592;51.088;13.732;2023-02-11T16:47:56;25.50;;;19.70;;
14992;SDS011;7592;51.088;13.732;2023-02-11T16:52:49;26.80;;;19.03;;
14992;SDS011;7592;51.088;13.732;2023-02-11T16:57:42;26.90;;;19.80;;
14992;SDS011;7592;51.088;13.732;2023-02-11T17:02:35;27.20;;;20.40;;
14992;SDS011;7592;51.088;13.732;2023-02-11T17:07:28;26.80;;;20.30;;
14992;SDS011;7592;51.088;13.732;2023-02-11T17:12:21;31.03;;;20.53;;
14992;SDS011;7592;51.088;13.732;2023-02-11T17:17:15;26.70;;;20.27;;
14992;SDS011;7592;51.088;13.732;2023-02-11T17:22:08;25.80;;;20.80;;
14992;SDS011;7592;51.088;13.732;2023-02-11T17:27:01;32.03;;;22.63;;
14992;SDS011;7592;51.088;13.732;2023-02-11T17:31:53;27.90;;;20.97;;
14992;SDS011;7592;51.088;13.732;2023-02-11T17:36:46;26.93;;;20.80;;
14992;SDS011;7592;51.088;13.732;2023-02-11T17:41:38;25.80;;;21.30;;
14992;SDS011;7592;51.088;13.732;2023-02-11T17:46:32;32.00;;;22.50;;
14992;SDS011;7592;51.088;13.732;2023-02-11T17:51:26;27.07;;;21.20;;
14992;SDS011;7592;51.088;13.732;2023-02-11T17:56:20;31.70;;;22.23;;
14992;SDS011;7592;51.088;13.732;2023-02-11T18:01:12;32.60;;;22.70;;
14992;SDS011;7592;51.088;13.732;2023-02-11T18:06:05;33.67;;;24.00;;
14992;SDS011;7592;51.088;13.732;2023-02-11T18:10:58;35.03;;;24.07;;
14992;SDS011;7592;51.088;13.732;2023-02-11T18:15:50;34.77;;;25.80;;
14992;SDS011;7592;51.088;13.732;2023-02-11T18:20:43;35.37;;;26.53;;
14992;SDS011;7592;51.088;13.732;2023-02-11T18:25:40;34.40;;;25.83;;
14992;SDS011;7592;51.088;13.732;2023-02-11T18:30:32;32.23;;;24.50;;
14992;SDS011;7592;51.088;13.732;2023-02-11T18:35:24;37.50;;;25.37;;
14992;SDS011;7592;51.088;13.732;2023-02-11T18:40:16;32.40;;;23.93;;
14992;SDS011;7592;51.088;13.732;2023-02-11T18:45:10;35.97;;;25.53;;
14992;SDS011;7592;51.088;13.732;2023-02-11T18:50:05;33.67;;;25.37;;
14992;SDS011;7592;51.088;13.732;2023-02-11T18:55:02;37.93;;;26.90;;
14992;SDS011;7592;51.088;13.732;2023-02-11T18:59:55;36.17;;;25.20;;
14992;SDS011;7592;51.088;13.732;2023-02-11T19:04:47;31.23;;;23.67;;
14992;SDS011;7592;51.088;13.732;2023-02-11T19:09:39;38.13;;;25.90;;
14992;SDS011;7592;51.088;13.732;2023-02-11T19:14:32;32.73;;;25.03;;
14992;SDS011;7592;51.088;13.732;2023-02-11T19:19:26;34.43;;;25.67;;
14992;SDS011;7592;51.088;13.732;2023-02-11T19:24:20;36.13;;;25.53;;
14992;SDS011;7592;51.088;13.732;2023-02-11T19:29:13;32.73;;;24.70;;
14992;SDS011;7592;51.088;13.732;2023-02-11T19:34:05;29.33;;;22.97;;
14992;SDS011;7592;51.088;13.732;2023-02-11T19:39:00;33.53;;;22.47;;
14992;SDS011;7592;51.088;13.732;2023-02-11T19:43:54;31.80;;;23.17;;
14992;SDS011;7592;51.088;13.732;2023-02-11T19:48:47;29.50;;;22.10;;
14992;SDS011;7592;51.088;13.732;2023-02-11T19:53:39;28.83;;;21.20;;
14992;SDS011;7592;51.088;13.732;2023-02-11T19:58:33;28.93;;;22.17;;
14992;SDS011;7592;51.088;13.732;2023-02-11T20:03:26;27.93;;;22.43;;
14992;SDS011;7592;51.088;13.732;2023-02-11T20:08:18;27.53;;;21.37;;
14992;SDS011;7592;51.088;13.732;2023-02-11T20:13:10;28.63;;;21.80;;
14992;SDS011;7592;51.088;13.732;2023-02-11T20:18:02;29.87;;;22.73;;
14992;SDS011;7592;51.088;13.732;2023-02-11T20:22:54;28.90;;;22.20;;
14992;SDS011;7592;51.088;13.732;2023-02-11T20:27:47;29.77;;;23.10;;
14992;SDS011;7592;51.088;13.732;2023-02-11T20:32:40;27.30;;;21.03;;
14992;SDS011;7592;51.088;13.732;2023-02-11T20:37:32;25.27;;;20.00;;
14992;SDS011;7592;51.088;13.732;2023-02-11T20:42:24;27.43;;;20.70;;
14992;SDS011;7592;51.088;13.732;2023-02-11T20:47:17;26.73;;;21.13;;
14992;SDS011;7592;51.088;13.732;2023-02-11T20:52:09;24.27;;;20.40;;
14992;SDS011;7592;51.088;13.732;2023-02-11T20:57:01;25.30;;;20.70;;
14992;SDS011;7592;51.088;13.732;2023-02-11T21:01:54;24.23;;;20.30;;
14992;SDS011;7592;51.088;13.732;2023-02-11T21:06:48;25.73;;;21.33;;
14992;SDS011;7592;51.088;13.732;2023-02-11T21:11:42;27.63;;;21.13;;
14992;SDS011;7592;51.088;13.732;2023-02-11T21:16:34;29.07;;;21.93;;
14992;SDS011;7592;51.088;13.732;2023-02-11T21:21:26;29.43;;;22.40;;
14992;SDS011;7592;51.088;13.732;2023-02-11T21:26:19;29.03;;;21.50;;
14992;SDS011;7592;51.088;13.732;2023-02-11T21:31:20;27.47;;;22.17;;
14992;SDS011;7592;51.088;13.732;2023-02-11T21:36:14;30.60;;;24.30;;
14992;SDS011;7592;51.088;13.732;2023-02-11T21:41:07;25.73;;;21.00;;
14992;SDS011;7592;51.088;13.732;2023-02-11T21:45:59;28.30;;;23.30;;
14992;SDS011;7592;51.088;13.732;2023-02-11T21:50:56;30.67;;;22.23;;
14992;SDS011;7592;51.088;13.732;2023-02-11T21:55:48;28.03;;;21.47;;
14992;SDS011;7592;51.088;13.732;2023-02-11T22:00:41;27.63;;;21.50;;
14992;SDS011;7592;51.088;13.732;2023-02-11T22:05:33;31.33;;;23.73;;
14992;SDS011;7592;51.088;13.732;2023-02-11T22:10:25;28.27;;;22.53;;
14992;SDS011;7592;51.088;13.732;2023-02-11T22:15:17;29.87;;;23.33;;
14992;SDS011;7592;51.088;13.732;2023-02-11T22:20:10;29.60;;;23.37;;
14992;SDS011;7592;51.088;13.732;2023-02-11T22:25:02;29.70;;;22.77;;
14992;SDS011;7592;51.088;13.732;2023-02-11T22:29:54;32.10;;;23.10;;
14992;SDS011;7592;51.088;13.732;2023-02-11T22:34:46;28.77;;;22.47;;
14992;SDS011;7592;51.088;13.732;2023-02-11T22:39:38;30.10;;;23.03;;
14992;SDS011;7592;51.088;13.732;2023-02-11T22:44:32;31.70;;;24.73;;
14992;SDS011;7592;51.088;13.732;2023-02-11T22:49:24;30.57;;;23.40;;
14992;SDS011;7592;51.088;13.732;2023-02-11T22:54:17;31.90;;;23.73;;
14992;SDS011;7592;51.088;13.732;2023-02-11T22:59:10;29.97;;;22.70;;
14992;SDS011;7592;51.088;13.732;2023-02-11T23:04:04;29.47;;;23.23;;
14992;SDS011;7592;51.088;13.732;2023-02-11T23:08:58;30.43;;;23.00;;
14992;SDS011;7592;51.088;13.732;2023-02-11T23:13:51;30.97;;;23.90;;
14992;SDS011;7592;51.088;13.732;2023-02-11T23:18:44;32.00;;;22.80;;
14992;SDS011;7592;51.088;13.732;2023-02-11T23:23:37;30.93;;;23.63;;
14992;SDS011;7592;51.088;13.732;2023-02-11T23:28:29;34.10;;;24.80;;
14992;SDS011;7592;51.088;13.732;2023-02-11T23:33:22;35.73;;;24.47;;
14992;SDS011;7592;51.088;13.732;2023-02-11T23:38:14;33.50;;;25.90;;
14992;SDS011;7592;51.088;13.732;2023-02-11T23:43:06;34.73;;;26.43;;
14992;SDS011;7592;51.088;13.732;2023-02-11T23:47:58;32.50;;;25.00;;
14992;SDS011;7592;51.088;13.732;2023-02-11T23:52:50;35.70;;;26.60;;
14992;SDS011;7592;51.088;13.732;2023-02-11T23:57:42;38.17;;;27.17;;
